Time;durP1;ratioP1;P1;durP2;ratioP2;P2;SDS_P1;SDS_P2;PMS_P1;PMS_P2;Temp;Humidity;BMP_temperature;BMP_pressure;BME280_temperature;BME280_humidity;BME280_pressure;Samples;Min_cycle;Max_cycle;Signal;HPM_P1;HPM_P2
2022/01/03 00:01:27;;;;;;;0.30;0.30;;;;;;;9.52;87.01;99982.91;4929558;28;20106;-82
2022/01/03 00:03:54;;;;;;;0.30;0.30;;;;;;;9.51;87.78;99992.47;4931858;29;20045;-87
2022/01/03 00:06:21;;;;;;;0.68;0.30;;;;;;;9.51;88.53;99984.63;4904628;28;20055;-86
2022/01/03 00:08:49;;;;;;;1.20;0.50;;;;;;;9.52;88.34;99969.84;4933016;29;20051;-82
2022/01/03 00:11:20;;;;;;;2.10;0.52;;;;;;;9.59;88.40;99972.34;4935591;28;20083;-82
2022/01/03 00:13:50;;;;;;;2.22;0.70;;;;;;;9.63;88.41;99972.28;4939140;28;20577;-85
2022/01/03 00:16:17;;;;;;;1.45;0.60;;;;;;;9.71;88.04;99966.03;4958919;28;20062;-86
2022/01/03 00:18:44;;;;;;;2.42;0.77;;;;;;;9.81;87.72;99973.72;4940958;28;20143;-85
2022/01/03 00:21:18;;;;;;;1.52;0.60;;;;;;;9.86;87.25;99972.75;4953137;28;20050;-86
2022/01/03 00:24:03;;;;;;;3.28;0.52;;;;;;;9.88;87.73;99976.22;4962685;28;20870;-85
2022/01/03 00:26:34;;;;;;;2.75;1.10;;;;;;;9.93;87.32;99984.84;4955755;28;20709;-85
2022/01/03 00:29:08;;;;;;;4.82;0.93;;;;;;;9.98;86.98;99976.06;4942285;28;20162;-84
2022/01/03 00:31:41;;;;;;;1.45;1.13;;;;;;;9.99;86.58;99968.19;4936923;28;20053;-86
2022/01/03 00:34:12;;;;;;;1.35;0.65;;;;;;;10.01;86.48;99983.84;4940959;28;20049;-85
2022/01/03 00:36:39;;;;;;;2.70;0.88;;;;;;;10.05;85.26;99981.16;4925442;28;20399;-84
2022/01/03 00:39:08;;;;;;;5.20;0.98;;;;;;;10.09;84.56;99964.50;4942230;28;20495;-84
2022/01/03 00:41:41;;;;;;;3.97;0.80;;;;;;;10.08;84.82;99972.38;4596610;28;10000125;-84
2022/01/03 00:44:09;;;;;;;1.42;0.80;;;;;;;10.10;84.14;99965.38;4940700;28;20039;-84
2022/01/03 00:46:36;;;;;;;3.35;0.80;;;;;;;10.11;83.28;99959.25;4925143;28;20079;-84
2022/01/03 00:49:05;;;;;;;4.20;0.75;;;;;;;10.20;82.83;99971.31;4918886;29;20059;-84
2022/01/03 00:51:32;;;;;;;3.33;0.85;;;;;;;10.19;82.08;99988.72;4944408;28;20027;-86
2022/01/03 00:53:59;;;;;;;3.42;1.13;;;;;;;10.19;82.43;99967.81;4945424;28;20039;-86
2022/01/03 00:56:35;;;;;;;5.63;0.90;;;;;;;10.17;82.58;99976.56;4917325;29;20062;-84
2022/01/03 00:59:13;;;;;;;0.95;0.65;;;;;;;10.13;82.61;99978.41;4960477;28;20091;-85
2022/01/03 01:01:48;;;;;;;1.80;0.82;;;;;;;10.13;82.41;99952.25;4919205;29;20110;-84
2022/01/03 01:04:16;;;;;;;1.48;0.70;;;;;;;10.12;82.61;99975.78;4937138;29;20122;-83
2022/01/03 01:06:43;;;;;;;2.63;0.90;;;;;;;10.08;83.45;99982.84;4938828;29;20082;-84
2022/01/03 01:09:14;;;;;;;4.57;1.25;;;;;;;10.09;83.63;100003.75;4934104;29;20106;-84
2022/01/03 01:11:44;;;;;;;3.03;1.00;;;;;;;10.04;85.71;99989.88;4938669;28;20057;-84
2022/01/03 01:14:13;;;;;;;6.13;0.70;;;;;;;9.92;86.67;99956.97;4935996;29;20538;-83
2022/01/03 01:16:39;;;;;;;2.30;0.80;;;;;;;9.81;87.51;100010.31;4938855;28;20111;-83
2022/01/03 01:19:08;;;;;;;5.50;0.75;;;;;;;9.75;86.54;100006.03;4917971;28;20065;-82
2022/01/03 01:21:35;;;;;;;2.95;1.00;;;;;;;9.71;86.70;100010.47;4936533;28;20785;-83
2022/01/03 01:24:02;;;;;;;3.50;0.77;;;;;;;9.68;85.71;99997.44;4919793;29;20070;-83
2022/01/03 01:29:13;;;;;;;5.82;0.77;;;;;;;9.60;85.53;100021.06;4939759;28;20050;-85
2022/01/03 01:31:48;;;;;;;4.10;1.02;;;;;;;9.50;86.72;100043.00;4937668;28;20043;-82
2022/01/03 01:34:22;;;;;;;4.25;0.60;;;;;;;9.43;86.42;100044.84;4938062;28;20071;-84
2022/01/03 01:36:52;;;;;;;;;;;;;;;9.35;89.55;100070.22;4956641;28;20047;-83
2022/01/03 01:39:21;;;;;;;4.50;0.85;;;;;;;9.11;97.09;100058.31;4951988;28;19934;-86
2022/01/03 01:41:48;;;;;;;2.45;0.65;;;;;;;8.77;100.00;100070.03;4965792;28;20055;-84
2022/01/03 01:44:16;;;;;;;0.80;0.75;;;;;;;8.55;100.00;100081.56;4934360;28;20054;-86
2022/01/03 01:46:53;;;;;;;1.25;0.52;;;;;;;8.35;100.00;100093.03;4922041;28;20074;-86
2022/01/03 01:49:22;;;;;;;4.25;0.60;;;;;;;8.22;100.00;100084.44;4920987;28;20044;-86
2022/01/03 01:52:03;;;;;;;3.90;0.63;;;;;;;8.13;100.00;100091.47;4943620;28;20058;-84
2022/01/03 01:54:37;;;;;;;2.38;0.60;;;;;;;8.03;100.00;100099.38;4924141;28;20850;-83
2022/01/03 01:57:09;;;;;;;3.42;0.68;;;;;;;7.92;100.00;100093.38;4923907;28;20051;-85
2022/01/03 01:59:55;;;;;;;3.25;0.57;;;;;;;7.85;100.00;100089.06;4927550;28;20094;-84
2022/01/03 02:02:32;;;;;;;2.58;0.63;;;;;;;7.74;100.00;100102.16;4939400;28;20070;-82
2022/01/03 02:05:20;;;;;;;2.47;0.50;;;;;;;7.65;100.00;100105.69;4939070;28;20130;-82
2022/01/03 02:08:02;;;;;;;8.50;0.93;;;;;;;7.62;100.00;100100.50;4938551;28;20051;-86
2022/01/03 02:10:37;;;;;;;3.65;1.08;;;;;;;7.60;100.00;100107.44;4939891;28;20062;-84
2022/01/03 02:13:04;;;;;;;1.92;0.95;;;;;;;7.62;100.00;100118.75;4939062;28;20049;-84
2022/01/03 02:15:32;;;;;;;3.40;1.48;;;;;;;7.65;100.00;100110.91;4924223;28;20102;-86
2022/01/03 02:17:59;;;;;;;9.77;1.23;;;;;;;7.68;100.00;100117.81;4935567;28;20250;-84
2022/01/03 02:20:28;;;;;;;6.85;0.80;;;;;;;7.64;100.00;100117.00;4936815;28;20051;-85
2022/01/03 02:22:55;;;;;;;4.50;0.80;;;;;;;7.59;100.00;100124.81;4936532;28;20051;-85
2022/01/03 02:25:24;;;;;;;5.43;1.13;;;;;;;7.56;100.00;100119.66;4942758;28;20086;-86
2022/01/03 02:27:53;;;;;;;2.05;0.85;;;;;;;7.63;100.00;100120.47;4934215;28;20230;-87
2022/01/03 02:30:27;;;;;;;8.75;1.17;;;;;;;7.71;100.00;100126.50;4938161;28;20059;-85
2022/01/03 02:32:54;;;;;;;7.28;1.17;;;;;;;7.83;99.07;100130.78;4928436;28;20050;-86
2022/01/03 02:35:22;;;;;;;14.00;3.08;;;;;;;7.86;97.98;100130.78;4929698;28;20051;-85
2022/01/03 02:37:50;;;;;;;7.18;1.98;;;;;;;7.82;98.03;100126.44;4926840;28;20352;-84
2022/01/03 02:40:18;;;;;;;7.88;1.10;;;;;;;7.80;97.16;100127.34;4929683;29;20499;-85
2022/01/03 02:42:45;;;;;;;5.95;0.88;;;;;;;7.83;97.28;100129.91;4929657;28;20058;-85
2022/01/03 02:45:19;;;;;;;5.80;1.00;;;;;;;7.85;97.39;100138.56;4932087;28;20078;-87
2022/01/03 02:47:55;;;;;;;6.05;1.58;;;;;;;7.89;95.47;100143.78;4931663;28;20105;-83
2022/01/03 02:50:24;;;;;;;6.72;1.08;;;;;;;7.96;94.37;100144.59;4951079;28;20149;-85
2022/01/03 02:52:51;;;;;;;7.90;1.63;;;;;;;7.94;94.34;100136.78;4917521;28;20055;-86
2022/01/03 02:55:19;;;;;;;6.38;1.33;;;;;;;7.98;93.92;100148.06;4923139;28;20090;-86
2022/01/03 02:57:53;;;;;;;5.32;1.05;;;;;;;8.11;93.13;100154.06;4914817;28;20055;-86
2022/01/03 03:00:29;;;;;;;4.35;0.90;;;;;;;8.19;93.28;100151.41;4917412;28;22725;-86
2022/01/03 03:02:56;;;;;;;3.95;1.05;;;;;;;8.22;93.43;100139.19;4918248;28;20146;-86
2022/01/03 03:05:24;;;;;;;2.20;0.77;;;;;;;8.26;94.23;100158.28;4916483;29;20523;-85
2022/01/03 03:07:53;;;;;;;3.35;1.05;;;;;;;8.27;94.40;100165.25;4946886;28;20055;-85
2022/01/03 03:10:23;;;;;;;5.50;2.08;;;;;;;8.28;94.68;100164.38;4932552;28;20094;-86
2022/01/03 03:12:50;;;;;;;8.32;1.83;;;;;;;8.33;94.98;100166.94;4921076;29;20047;-86
2022/01/03 03:15:17;;;;;;;10.52;1.58;;;;;;;8.34;95.92;100155.63;4915851;28;20047;-86
2022/01/03 03:17:47;;;;;;;10.82;1.98;;;;;;;8.28;96.90;100160.00;4934530;29;20047;-85
2022/01/03 03:20:26;;;;;;;9.57;1.58;;;;;;;8.24;97.50;100166.13;4934849;28;20832;-86
2022/01/03 03:22:54;;;;;;;9.77;1.58;;;;;;;8.25;97.04;100166.97;4953041;28;20051;-85
2022/01/03 03:25:28;;;;;;;10.30;1.17;;;;;;;8.28;96.66;100169.59;4935624;28;20047;-86
2022/01/03 03:28:08;;;;;;;12.77;2.20;;;;;;;8.32;96.23;100167.81;4951225;28;20051;-86
2022/01/03 03:30:44;;;;;;;5.85;1.75;;;;;;;8.40;95.24;100171.25;4922202;28;20051;-88
2022/01/03 03:33:18;;;;;;;6.07;3.00;;;;;;;8.50;94.78;100170.31;4923530;28;20126;-86
2022/01/03 03:35:46;;;;;;;5.97;2.08;;;;;;;8.57;93.72;100171.97;4956785;28;20107;-86
2022/01/03 03:38:13;;;;;;;7.65;1.65;;;;;;;8.60;93.45;100174.59;4950715;28;20049;-86
2022/01/03 03:40:43;;;;;;;14.10;2.85;;;;;;;8.57;93.62;100166.78;4940583;28;20051;-85
2022/01/03 03:43:09;;;;;;;11.07;1.98;;;;;;;8.56;93.49;100174.63;4937670;28;20045;-87
2022/01/03 03:45:36;;;;;;;9.63;1.90;;;;;;;8.53;93.15;100170.28;4943638;28;20055;-85
2022/01/03 03:48:03;;;;;;;8.70;1.95;;;;;;;8.55;93.14;100165.94;4949529;28;20051;-85
2022/01/03 03:50:29;;;;;;;8.13;1.60;;;;;;;8.59;92.52;100180.69;4952572;28;20060;-85
2022/01/03 03:52:56;;;;;;;10.70;2.63;;;;;;;8.63;92.48;100189.34;4951041;28;20055;-84
2022/01/03 03:55:22;;;;;;;13.10;1.85;;;;;;;8.66;91.67;100164.97;4940133;28;20798;-86
2022/01/03 03:57:49;;;;;;;9.05;1.63;;;;;;;8.71;90.70;100174.47;4949488;28;20259;-86
2022/01/03 04:00:19;;;;;;;4.97;1.35;;;;;;;8.77;89.60;100168.34;4937104;28;20138;-85
2022/01/03 04:02:46;;;;;;;8.00;1.77;;;;;;;8.81;89.66;100174.41;4948236;28;21062;-85
2022/01/03 04:05:12;;;;;;;10.15;2.15;;;;;;;8.82;89.86;100179.59;4936491;29;20103;-83
2022/01/03 04:07:39;;;;;;;8.80;1.58;;;;;;;8.83;88.88;100154.38;4939406;28;20055;-84
2022/01/03 04:10:09;;;;;;;12.10;3.08;;;;;;;8.88;87.92;100174.31;4951859;28;20047;-85
2022/01/03 04:12:35;;;;;;;14.57;3.28;;;;;;;8.87;88.03;100167.38;4916787;29;20055;-86
2022/01/03 04:15:04;;;;;;;7.32;1.88;;;;;;;8.89;87.51;100169.97;4933227;28;20929;-86
2022/01/03 04:17:30;;;;;;;10.15;2.15;;;;;;;8.92;86.87;100173.41;4943528;28;20048;-84
2022/01/03 04:19:57;;;;;;;10.35;1.20;;;;;;;8.94;87.03;100178.59;4945631;28;20476;-87
2022/01/03 04:22:24;;;;;;;11.43;2.75;;;;;;;8.94;85.80;100170.78;4948234;28;20051;-83
2022/01/03 04:24:51;;;;;;;4.95;1.30;;;;;;;8.98;85.88;100176.84;4951848;28;20050;-86
2022/01/03 04:27:18;;;;;;;13.00;2.75;;;;;;;8.92;86.93;100168.19;4948260;28;20107;-83
2022/01/03 04:29:44;;;;;;;11.48;2.30;;;;;;;8.88;86.72;100169.09;4934633;28;20074;-86
2022/01/03 04:32:11;;;;;;;13.10;3.30;;;;;;;8.85;87.09;100166.53;4951374;28;20054;-84
2022/01/03 04:34:38;;;;;;;12.20;2.38;;;;;;;8.85;86.78;100163.03;4956312;28;20050;-87
2022/01/03 04:37:04;;;;;;;11.32;2.05;;;;;;;8.84;86.90;100175.25;4949366;28;20111;-84
2022/01/03 04:39:31;;;;;;;8.88;2.30;;;;;;;8.86;86.18;100149.97;4955953;28;20053;-86
2022/01/03 04:41:57;;;;;;;7.90;2.22;;;;;;;8.90;86.17;100167.34;4954807;28;20086;-86
2022/01/03 04:44:24;;;;;;;8.52;2.25;;;;;;;8.93;86.01;100166.47;4943591;28;20090;-86
2022/01/03 04:46:51;;;;;;;7.65;2.78;;;;;;;8.97;85.16;100143.78;4956543;28;20046;-84
2022/01/03 04:49:18;;;;;;;12.25;2.03;;;;;;;8.93;84.93;100163.84;4942189;28;20065;-83
2022/01/03 04:51:44;;;;;;;7.88;3.33;;;;;;;8.86;85.87;100165.63;4955087;28;20055;-85
2022/01/03 04:54:11;;;;;;;7.22;1.92;;;;;;;8.79;85.75;100171.81;4937109;28;20142;-83
2022/01/03 04:56:37;;;;;;;10.57;2.28;;;;;;;8.78;86.26;100172.69;4939074;28;20057;-82
2022/01/03 04:59:04;;;;;;;9.63;2.08;;;;;;;8.82;86.31;100163.09;4938586;28;20050;-86
2022/01/03 05:01:31;;;;;;;10.88;1.83;;;;;;;8.84;85.96;100167.41;4943732;28;20047;-83
2022/01/03 05:03:57;;;;;;;8.80;1.65;;;;;;;8.84;86.13;100174.34;4920143;28;20044;-85
2022/01/03 05:06:24;;;;;;;11.40;2.30;;;;;;;8.86;86.38;100180.44;4939272;28;20181;-83
2022/01/03 05:08:50;;;;;;;12.40;2.50;;;;;;;8.78;87.39;100168.31;4935799;28;20051;-85
2022/01/03 05:11:17;;;;;;;10.52;2.47;;;;;;;8.79;87.01;100171.81;4937995;28;20415;-82
2022/01/03 05:13:44;;;;;;;7.65;1.52;;;;;;;8.75;87.10;100178.78;4929925;28;20043;-84
2022/01/03 05:16:10;;;;;;;9.27;2.03;;;;;;;8.66;88.00;100183.25;4945905;28;20059;-84
2022/01/03 05:18:37;;;;;;;11.02;3.40;;;;;;;8.59;88.37;100183.28;4938015;28;20098;-80
2022/01/03 05:21:04;;;;;;;12.35;2.42;;;;;;;8.60;88.36;100177.19;4953122;28;20422;-88
2022/01/03 05:23:31;;;;;;;5.20;1.70;;;;;;;8.60;88.67;100174.59;4956322;28;20502;-84
2022/01/03 05:25:57;;;;;;;13.20;3.38;;;;;;;8.54;88.83;100179.84;4957435;28;20057;-85
2022/01/03 05:28:24;;;;;;;7.65;2.67;;;;;;;8.50;89.40;100175.53;4951852;28;20061;-86
2022/01/03 05:30:52;;;;;;;12.10;2.38;;;;;;;8.51;89.72;100189.44;4939917;28;20051;-87
2022/01/03 05:33:19;;;;;;;9.32;3.38;;;;;;;8.56;89.92;100195.47;4955846;28;20414;-86
2022/01/03 05:35:45;;;;;;;9.13;2.00;;;;;;;8.60;90.53;100191.97;4953094;28;20102;-84
2022/01/03 05:38:12;;;;;;;12.10;1.98;;;;;;;8.60;91.32;100186.75;4940714;28;20480;-86
2022/01/03 05:40:38;;;;;;;11.82;3.78;;;;;;;8.53;91.54;100180.72;4953414;28;20047;-86
2022/01/03 05:43:05;;;;;;;14.02;3.25;;;;;;;8.48;92.13;100202.50;4938835;28;20536;-87
2022/01/03 05:45:31;;;;;;;4.68;2.60;;;;;;;8.46;91.62;100188.59;4941307;28;20055;-85
2022/01/03 05:47:58;;;;;;;9.48;2.33;;;;;;;8.46;91.05;100196.44;4957269;28;20047;-84
2022/01/03 05:50:25;;;;;;;7.22;2.97;;;;;;;8.47;90.82;100193.81;4935332;28;20062;-85
2022/01/03 05:52:51;;;;;;;8.88;2.45;;;;;;;8.51;89.80;100179.84;4953248;28;20051;-85
2022/01/03 05:55:20;;;;;;;11.75;3.03;;;;;;;8.58;89.07;100186.75;4940635;28;20619;-87
2022/01/03 05:57:47;;;;;;;14.68;2.83;;;;;;;8.68;87.46;100199.72;4941450;28;20051;-86
2022/01/03 06:00:16;;;;;;;17.23;2.85;;;;;;;8.71;87.47;100186.69;4956531;28;20046;-84
2022/01/03 06:02:43;;;;;;;7.20;2.13;;;;;;;8.67;87.18;100193.66;4921975;29;20138;-83
2022/01/03 06:05:19;;;;;;;11.60;3.03;;;;;;;8.70;86.96;100198.84;4918796;28;20989;-84
2022/01/03 06:07:46;;;;;;;10.60;2.28;;;;;;;8.77;86.29;100197.03;4936466;28;20154;-87
2022/01/03 06:10:17;;;;;;;18.10;2.88;;;;;;;8.81;86.72;100196.13;4938799;28;20685;-84
2022/01/03 06:12:45;;;;;;;12.57;2.47;;;;;;;8.77;88.41;100194.44;4923033;29;20055;-84
2022/01/03 06:15:13;;;;;;;13.55;2.60;;;;;;;8.72;89.31;100197.09;4939330;28;20138;-85
2022/01/03 06:17:39;;;;;;;10.02;2.63;;;;;;;8.71;89.33;100202.34;4939869;28;20903;-85
2022/01/03 06:20:07;;;;;;;12.30;2.65;;;;;;;8.64;90.04;100191.06;4944129;28;20205;-82
2022/01/03 06:22:33;;;;;;;8.90;2.92;;;;;;;8.63;89.80;100189.34;4942475;28;20051;-83
2022/01/03 06:25:00;;;;;;;8.60;2.28;;;;;;;8.64;88.80;100192.81;4921055;28;20055;-85
2022/01/03 06:27:26;;;;;;;9.95;3.28;;;;;;;8.63;89.86;100181.53;4925166;28;20421;-86
2022/01/03 06:29:53;;;;;;;13.07;2.30;;;;;;;8.61;89.84;100196.31;4938583;28;20649;-84
2022/01/03 06:32:20;;;;;;;9.00;2.55;;;;;;;8.53;89.41;100178.13;4939211;28;20039;-83
2022/01/03 06:34:46;;;;;;;15.00;2.50;;;;;;;8.44;90.01;100197.25;4924500;28;20111;-84
2022/01/03 06:37:13;;;;;;;12.68;3.08;;;;;;;8.35;90.22;100192.13;4924028;28;20467;-81
2022/01/03 06:39:39;;;;;;;14.00;2.50;;;;;;;8.35;89.59;100193.88;4945015;28;20126;-83
2022/01/03 06:42:06;;;;;;;12.35;2.80;;;;;;;8.36;89.39;100201.69;4940750;28;20047;-85
2022/01/03 06:44:33;;;;;;;12.23;2.53;;;;;;;8.40;88.90;100200.78;4941091;28;21054;-82
2022/01/03 06:46:59;;;;;;;16.75;2.95;;;;;;;8.40;88.72;100198.19;4960099;28;20049;-85
2022/01/03 06:49:26;;;;;;;9.70;2.83;;;;;;;8.46;88.35;100188.59;4925861;28;20166;-85
2022/01/03 06:51:52;;;;;;;11.75;2.38;;;;;;;8.48;88.04;100197.31;4948989;28;20760;-84
2022/01/03 06:54:19;;;;;;;10.85;3.30;;;;;;;8.46;87.74;100194.72;4945610;28;20058;-84
2022/01/03 06:56:46;;;;;;;16.58;2.70;;;;;;;8.42;87.46;100186.00;4948490;28;20716;-84
2022/01/03 06:59:12;;;;;;;15.68;3.50;;;;;;;8.47;87.36;100199.03;4928253;28;20118;-85
2022/01/03 07:01:39;;;;;;;12.07;3.03;;;;;;;8.55;87.13;100196.34;4958697;28;20980;-84
2022/01/03 07:04:06;;;;;;;18.42;4.03;;;;;;;8.60;86.30;100207.63;4923136;29;20047;-85
2022/01/03 07:06:32;;;;;;;22.45;4.45;;;;;;;8.63;86.06;100196.28;4921473;29;20511;-83
2022/01/03 07:08:59;;;;;;;6.78;3.08;;;;;;;8.70;85.93;100200.59;4944454;28;20106;-86
2022/01/03 07:11:26;;;;;;;11.90;3.28;;;;;;;8.75;85.32;100207.50;4936002;28;20047;-84
2022/01/03 07:14:04;;;;;;;13.07;3.15;;;;;;;8.76;85.11;100206.63;4920891;28;20054;-88
2022/01/03 07:19:17;;;;;;;10.07;2.80;;;;;;;8.83;84.76;100212.66;4918137;28;20067;-84
2022/01/03 07:21:43;;;;;;;13.23;3.25;;;;;;;8.77;84.99;100215.31;4921959;28;20066;-82
2022/01/03 07:24:11;;;;;;;14.40;3.33;;;;;;;8.69;85.50;100211.91;4916821;28;21137;-85
2022/01/03 07:26:38;;;;;;;8.63;2.75;;;;;;;8.62;85.71;100216.31;4920415;28;20546;-85
2022/01/03 07:29:04;;;;;;;17.20;3.65;;;;;;;8.55;86.15;100230.28;4932343;28;20103;-84
2022/01/03 07:31:31;;;;;;;17.00;4.68;;;;;;;8.48;86.66;100218.16;4954310;28;20053;-85
2022/01/03 07:33:57;;;;;;;17.25;3.28;;;;;;;8.43;86.84;100225.97;4937361;28;20050;-83
2022/01/03 07:36:24;;;;;;;19.08;3.90;;;;;;;8.37;87.27;100224.28;4934573;28;20058;-88
2022/01/03 07:38:50;;;;;;;19.15;4.28;;;;;;;8.35;87.57;100244.28;4937877;28;20141;-85
2022/01/03 07:41:17;;;;;;;17.10;3.63;;;;;;;8.33;87.79;100251.28;4933421;28;20054;-85
2022/01/03 07:43:45;;;;;;;18.67;3.75;;;;;;;8.29;87.83;100246.91;4923221;28;20099;-87
2022/01/03 07:46:12;;;;;;;13.20;3.35;;;;;;;8.30;87.96;100251.28;4936735;28;20475;-87
2022/01/03 07:48:39;;;;;;;12.63;3.28;;;;;;;8.32;87.37;100246.91;4917026;29;20670;-86
2022/01/03 07:51:05;;;;;;;15.02;4.57;;;;;;;8.39;87.54;100245.13;4918022;29;20047;-88
2022/01/03 07:53:32;;;;;;;15.25;3.70;;;;;;;8.45;86.88;100250.31;4903267;29;20099;-88
2022/01/03 07:55:59;;;;;;;13.77;3.38;;;;;;;8.54;86.71;100252.91;4922490;29;20047;-84
2022/01/03 07:58:26;;;;;;;12.25;3.45;;;;;;;8.60;86.31;100239.81;4920553;28;20056;-88
2022/01/03 08:00:53;;;;;;;11.02;3.47;;;;;;;8.69;85.59;100251.03;4941361;28;20500;-87
2022/01/03 08:03:20;;;;;;;11.98;3.20;;;;;;;8.74;85.39;100244.06;4941742;28;20065;-84
2022/01/03 08:05:46;;;;;;;9.35;3.70;;;;;;;8.75;85.34;100246.63;4951680;28;20039;-87
2022/01/03 08:08:13;;;;;;;11.90;3.75;;;;;;;8.78;85.28;100251.81;4958270;28;20454;-85
2022/01/03 08:10:45;;;;;;;19.10;4.32;;;;;;;8.83;85.10;100249.19;4958143;28;20082;-87
2022/01/03 08:13:12;;;;;;;12.00;3.17;;;;;;;8.86;85.16;100246.53;4958578;28;20047;-87
2022/01/03 08:15:39;;;;;;;12.10;4.05;;;;;;;8.86;85.45;100249.16;4973912;28;20050;-88
2022/01/03 08:18:06;;;;;;;16.80;3.72;;;;;;;8.88;85.38;100249.16;4941142;28;20079;-86
2022/01/03 08:20:33;;;;;;;12.88;3.80;;;;;;;8.92;84.57;100245.66;4955997;28;20047;-88
2022/01/03 08:23:00;;;;;;;15.85;3.80;;;;;;;8.97;84.37;100242.97;4944888;28;20480;-85
2022/01/03 08:25:26;;;;;;;23.23;4.00;;;;;;;8.94;84.59;100262.16;4946555;28;20053;-86
2022/01/03 08:27:53;;;;;;;14.98;3.47;;;;;;;8.91;85.75;100255.19;4961650;28;20062;-86
2022/01/03 08:30:19;;;;;;;21.77;4.88;;;;;;;8.91;85.96;100257.81;4944967;28;20445;-85
2022/01/03 08:32:46;;;;;;;11.27;3.10;;;;;;;8.88;85.96;100250.03;4959179;28;20109;-85
2022/01/03 08:35:13;;;;;;;16.38;3.70;;;;;;;8.90;85.14;100244.78;4961166;28;20043;-83
2022/01/03 08:37:40;;;;;;;17.50;3.08;;;;;;;8.99;83.92;100249.91;4946747;28;20590;-84
2022/01/03 08:40:08;;;;;;;17.10;3.45;;;;;;;9.02;84.29;100256.84;4957379;28;20105;-84
2022/01/03 08:42:36;;;;;;;11.57;3.60;;;;;;;9.04;83.79;100248.13;4958605;28;20050;-85
2022/01/03 08:45:05;;;;;;;9.90;4.00;;;;;;;9.08;82.60;100244.59;4946136;28;20047;-83
2022/01/03 08:47:33;;;;;;;13.40;3.58;;;;;;;9.13;82.28;100247.19;4941111;28;20050;-86
2022/01/03 08:50:02;;;;;;;15.55;3.08;;;;;;;9.14;82.81;100253.25;4963563;28;20061;-83
2022/01/03 08:52:31;;;;;;;9.60;2.97;;;;;;;9.18;82.24;100255.84;4964118;28;21787;-83
2022/01/03 08:54:59;;;;;;;13.75;3.40;;;;;;;9.14;82.31;100251.53;4949127;28;20039;-85
2022/01/03 08:57:27;;;;;;;8.15;2.83;;;;;;;9.08;82.27;100251.59;4945763;28;20061;-85
2022/01/03 08:59:54;;;;;;;14.45;3.20;;;;;;;8.98;83.19;100247.31;4957593;28;20072;-83
2022/01/03 09:02:24;;;;;;;10.80;2.70;;;;;;;9.01;83.34;100249.91;4938019;28;20055;-84
2022/01/03 09:04:50;;;;;;;15.48;4.00;;;;;;;9.05;82.28;100247.25;4948881;28;21457;-84
2022/01/03 09:07:17;;;;;;;7.45;2.88;;;;;;;9.09;81.96;100253.31;4935108;28;20202;-83
2022/01/03 09:09:44;;;;;;;15.55;3.60;;;;;;;9.16;81.67;100254.97;4949612;28;20532;-85
2022/01/03 09:12:11;;;;;;;13.90;2.97;;;;;;;9.21;81.10;100250.59;4944842;28;20051;-84
2022/01/03 09:14:38;;;;;;;16.45;3.72;;;;;;;9.29;80.61;100247.03;4950995;28;20054;-85
2022/01/03 09:17:05;;;;;;;8.13;2.55;;;;;;;9.37;79.95;100246.09;4945866;28;20047;-84
2022/01/03 09:19:34;;;;;;;12.00;2.72;;;;;;;9.38;79.73;100247.78;4947100;28;20052;-85
2022/01/03 09:22:12;;;;;;;11.27;2.90;;;;;;;9.44;78.85;100242.50;4962000;28;20114;-85
2022/01/03 09:24:51;;;;;;;16.85;3.90;;;;;;;9.42;78.52;100228.59;4944900;28;20091;-84
2022/01/03 09:30:04;;;;;;;;;;;;;;;9.38;78.57;100237.34;4918451;28;20055;-88
2022/01/03 09:32:32;;;;;;;12.95;3.10;;;;;;;9.39;78.21;100236.47;4927325;29;19945;-86
2022/01/03 09:35:00;;;;;;;12.00;3.42;;;;;;;9.42;78.28;100227.75;4928244;28;20040;-83
2022/01/03 09:37:27;;;;;;;12.02;3.47;;;;;;;9.39;78.26;100236.47;4940216;28;20051;-85
2022/01/03 09:39:55;;;;;;;14.48;3.13;;;;;;;9.37;79.05;100227.81;4945341;28;20143;-86
2022/01/03 09:42:31;;;;;;;10.18;3.20;;;;;;;9.38;78.60;100228.66;4928454;28;20055;-83
2022/01/03 09:45:02;;;;;;;18.45;2.88;;;;;;;9.48;78.12;100224.19;4927446;29;20069;-86
2022/01/03 09:47:32;;;;;;;8.27;3.65;;;;;;;9.52;78.23;100231.13;4937500;28;20058;-84
2022/01/03 09:50:01;;;;;;;11.73;3.53;;;;;;;9.43;78.32;100234.69;4916418;29;20055;-85
2022/01/03 09:52:30;;;;;;;12.40;4.10;;;;;;;9.33;79.25;100225.22;4958615;28;20110;-88
2022/01/03 09:54:57;;;;;;;10.45;3.47;;;;;;;9.31;79.22;100220.03;4928214;29;20043;-84
2022/01/03 09:57:28;;;;;;;12.80;3.20;;;;;;;9.33;79.17;100230.44;4927712;29;20079;-86
2022/01/03 09:59:55;;;;;;;9.15;3.35;;;;;;;9.47;77.97;100212.03;4953539;28;20119;-85
2022/01/03 10:02:22;;;;;;;9.43;3.67;;;;;;;9.53;78.06;100206.69;4926978;28;20071;-85
2022/01/03 10:04:49;;;;;;;11.63;3.95;;;;;;;9.56;78.28;100210.16;4922072;28;20057;-86
2022/01/03 10:07:17;;;;;;;6.57;2.67;;;;;;;9.60;77.78;100203.16;4937538;28;20047;-85
2022/01/03 10:09:45;;;;;;;10.80;3.65;;;;;;;9.66;77.96;100208.31;4940849;28;20480;-84
2022/01/03 10:12:15;;;;;;;15.63;3.60;;;;;;;9.63;78.01;100217.94;4919634;28;20070;-85
2022/01/03 10:14:43;;;;;;;8.18;3.85;;;;;;;9.58;77.76;100202.28;4922875;28;20054;-85
2022/01/03 10:17:11;;;;;;;8.73;3.20;;;;;;;9.53;78.68;100202.34;4938370;28;20055;-85
2022/01/03 10:19:56;;;;;;;8.57;2.75;;;;;;;9.50;78.69;100191.06;4941429;28;20056;-84
2022/01/03 10:22:28;;;;;;;15.43;3.75;;;;;;;9.46;78.96;100179.78;4936594;28;20094;-84
2022/01/03 10:24:57;;;;;;;8.63;2.78;;;;;;;9.43;78.94;100187.66;4922010;28;20055;-88
2022/01/03 10:27:44;;;;;;;14.70;2.78;;;;;;;9.46;79.06;100181.53;4929629;28;20055;-85
2022/01/03 10:30:11;;;;;;;19.50;3.58;;;;;;;9.46;78.96;100186.78;4928764;28;20055;-84
2022/01/03 10:32:38;;;;;;;7.93;3.47;;;;;;;9.47;79.16;100176.28;4943755;28;20065;-87
2022/01/03 10:35:17;;;;;;;8.65;2.58;;;;;;;9.49;78.27;100160.59;4942053;28;20051;-85
2022/01/03 10:37:45;;;;;;;8.05;3.28;;;;;;;9.51;78.56;100170.16;4944892;28;20046;-87
2022/01/03 10:40:28;;;;;;;8.15;3.28;;;;;;;9.54;78.39;100164.03;4944806;28;20054;-85
2022/01/03 10:43:19;;;;;;;9.90;3.95;;;;;;;9.52;78.17;100161.44;4930539;28;20082;-85
2022/01/03 10:45:50;;;;;;;7.53;2.42;;;;;;;9.53;78.19;100165.78;4945527;28;20133;-88
2022/01/03 10:48:33;;;;;;;9.70;2.78;;;;;;;9.60;76.89;100169.19;4965934;28;20042;-85
2022/01/03 10:51:02;;;;;;;16.83;3.00;;;;;;;9.64;76.34;100164.78;4949168;28;20862;-86
2022/01/03 10:53:42;;;;;;;15.27;3.13;;;;;;;9.71;75.69;100164.69;4957063;28;20058;-84
2022/01/03 10:56:38;;;;;;;14.45;4.18;;;;;;;9.77;75.21;100153.25;4958186;28;20034;-87
2022/01/03 10:59:34;;;;;;;12.65;3.00;;;;;;;9.77;75.54;100167.19;4954879;28;20074;-84
2022/01/03 11:02:02;;;;;;;8.60;3.25;;;;;;;9.77;75.18;100166.34;4946683;28;20054;-84
2022/01/03 11:04:43;;;;;;;8.45;2.97;;;;;;;9.78;75.45;100178.53;4952785;28;20051;-86
2022/01/03 11:13:24;;;;;;;8.18;2.20;;;;;;;9.74;76.32;100179.47;4946842;28;20225;-87
2022/01/03 11:16:04;;;;;;;8.18;2.65;;;;;;;9.82;76.30;100151.47;4943753;28;20406;-89
2022/01/03 11:18:34;;;;;;;11.38;3.38;;;;;;;9.91;76.20;100171.38;4956774;28;20062;-87
2022/01/03 11:21:13;;;;;;;12.30;2.58;;;;;;;9.98;75.64;100154.72;4957036;28;21714;-86
2022/01/03 11:23:47;;;;;;;12.18;3.20;;;;;;;10.05;75.52;100171.16;4955565;28;20062;-88
2022/01/03 11:26:17;;;;;;;5.78;2.13;;;;;;;10.14;74.24;100159.72;4938518;28;20101;-88
2022/01/03 11:28:44;;;;;;;9.70;2.47;;;;;;;10.18;73.74;100158.78;4951389;28;20039;-87
2022/01/03 11:31:15;;;;;;;9.60;2.85;;;;;;;10.25;73.57;100158.66;4951792;28;20058;-88
2022/01/03 11:33:42;;;;;;;10.63;2.78;;;;;;;10.36;73.54;100161.13;4955295;28;20057;-87
2022/01/03 11:36:10;;;;;;;9.95;2.40;;;;;;;10.43;72.82;100135.75;4943853;28;20094;-86
2022/01/03 11:38:42;;;;;;;10.98;2.67;;;;;;;10.58;72.25;100145.09;4960424;28;21345;-85
2022/01/03 11:41:11;;;;;;;9.73;2.67;;;;;;;10.72;71.27;100144.84;4946294;28;20055;-84
2022/01/03 11:43:40;;;;;;;12.27;2.97;;;;;;;10.76;71.43;100150.00;4958936;28;20049;-86
2022/01/03 11:46:07;;;;;;;16.40;3.53;;;;;;;10.80;71.19;100153.44;4955740;28;20079;-85
2022/01/03 11:48:34;;;;;;;5.22;2.30;;;;;;;10.85;70.17;100125.41;4961983;28;20110;-88
2022/01/03 11:51:06;;;;;;;10.65;2.20;;;;;;;10.84;70.62;100139.38;4956787;28;20050;-84
2022/01/03 11:53:38;;;;;;;5.75;2.35;;;;;;;10.83;70.76;100137.66;4966016;28;20058;-86